createdAt,value
2018-10-16T00:00:05.446Z,17.47
2018-10-16T00:01:05.148Z,17.51
2018-10-16T00:02:05.627Z,17.47
2018-10-16T00:03:05.682Z,17.42
2018-10-16T00:04:05.617Z,17.49
2018-10-16T00:05:05.623Z,17.49
2018-10-16T00:06:05.627Z,17.49
2018-10-16T00:07:05.607Z,17.53
2018-10-16T00:08:05.145Z,17.49
2018-10-16T00:09:05.605Z,17.53
2018-10-16T00:10:05.150Z,17.53
2018-10-16T00:11:04.833Z,17.49
2018-10-16T00:12:05.704Z,17.45
2018-10-16T00:13:05.634Z,17.39
2018-10-16T00:14:07.203Z,17.40
2018-10-16T00:15:07.132Z,17.43
2018-10-16T00:16:05.097Z,17.32
2018-10-16T00:17:05.108Z,17.30
2018-10-16T00:18:04.799Z,17.32
2018-10-16T00:19:05.099Z,17.35
2018-10-16T00:20:05.104Z,17.30
2018-10-16T00:21:04.761Z,17.33
2018-10-16T00:22:04.717Z,17.28
2018-10-16T00:23:04.713Z,17.36
2018-10-16T00:24:05.366Z,17.25
2018-10-16T00:25:07.209Z,17.22
2018-10-16T00:26:07.130Z,17.21
2018-10-16T00:27:06.889Z,17.18
2018-10-16T00:28:05.217Z,17.06
2018-10-16T00:29:05.125Z,17.02
2018-10-16T00:30:07.112Z,17.09
2018-10-16T00:31:04.858Z,17.15
2018-10-16T00:32:05.122Z,17.14
2018-10-16T00:33:05.374Z,17.00
2018-10-16T00:34:05.113Z,17.10
2018-10-16T00:35:05.115Z,17.12
2018-10-16T00:36:05.102Z,17.20
2018-10-16T00:37:05.111Z,17.10
2018-10-16T00:38:05.112Z,17.15
2018-10-16T00:39:05.163Z,17.18
2018-10-16T00:40:05.112Z,17.27
2018-10-16T00:41:05.098Z,17.25
2018-10-16T00:42:05.117Z,17.09
2018-10-16T00:43:05.113Z,17.07
2018-10-16T00:44:05.119Z,17.15
2018-10-16T00:45:05.121Z,17.05
2018-10-16T00:46:05.122Z,17.06
2018-10-16T00:47:05.131Z,17.05
2018-10-16T00:48:05.112Z,17.05
2018-10-16T00:49:05.117Z,17.15
2018-10-16T00:50:05.129Z,17.22
2018-10-16T00:51:05.132Z,17.15
2018-10-16T00:52:05.049Z,17.12
2018-10-16T00:53:05.614Z,17.20
2018-10-16T00:54:07.139Z,17.20
2018-10-16T00:55:05.726Z,17.22
2018-10-16T00:56:04.798Z,17.25
2018-10-16T00:57:05.210Z,17.14
2018-10-16T00:58:05.090Z,17.27
2018-10-16T00:59:05.140Z,17.14
2018-10-16T01:00:05.121Z,17.22
2018-10-16T01:01:05.447Z,17.22
2018-10-16T01:02:06.879Z,17.12
2018-10-16T01:03:05.627Z,17.22
2018-10-16T01:04:05.640Z,17.21
2018-10-16T01:05:05.128Z,17.21
2018-10-16T01:06:05.043Z,17.22
2018-10-16T01:07:05.125Z,17.22
2018-10-16T01:08:05.118Z,17.07
2018-10-16T01:09:05.121Z,17.17
2018-10-16T01:10:04.738Z,17.28
2018-10-16T01:11:05.115Z,17.22
2018-10-16T01:12:05.485Z,17.25
2018-10-16T01:13:07.132Z,17.18
2018-10-16T01:14:04.807Z,17.24
2018-10-16T01:15:05.166Z,17.15
2018-10-16T01:16:04.717Z,17.21
2018-10-16T01:17:05.005Z,17.22
2018-10-16T01:18:05.755Z,17.20
2018-10-16T01:19:04.497Z,17.25
2018-10-16T01:20:04.883Z,17.25
2018-10-16T01:21:04.716Z,17.22
2018-10-16T01:22:05.175Z,17.24
2018-10-16T01:23:04.947Z,17.27
2018-10-16T01:24:05.151Z,17.22
2018-10-16T01:25:05.125Z,17.25
2018-10-16T01:26:05.121Z,17.22
2018-10-16T01:27:05.485Z,17.24
2018-10-16T01:28:04.862Z,17.32
2018-10-16T01:29:05.149Z,17.27
2018-10-16T01:30:05.132Z,17.33
2018-10-16T01:31:05.592Z,17.42
2018-10-16T01:32:05.126Z,17.25
2018-10-16T01:33:05.130Z,17.18
2018-10-16T01:34:05.128Z,17.24
2018-10-16T01:35:05.132Z,17.30
2018-10-16T01:36:04.935Z,17.28
2018-10-16T01:37:06.713Z,17.27
2018-10-16T01:38:04.575Z,17.33
2018-10-16T01:39:04.956Z,17.33
2018-10-16T01:40:05.127Z,17.33
2018-10-16T01:41:04.937Z,17.42
2018-10-16T01:42:04.942Z,17.39
2018-10-16T01:43:04.955Z,17.33
2018-10-16T01:44:05.148Z,17.30
2018-10-16T01:45:04.951Z,17.36
2018-10-16T01:46:05.149Z,17.40
2018-10-16T01:47:04.959Z,17.46
2018-10-16T01:48:05.158Z,17.47
2018-10-16T01:49:04.958Z,17.47
2018-10-16T01:50:04.935Z,17.46
2018-10-16T01:51:05.149Z,17.43
2018-10-16T01:52:05.132Z,17.39
2018-10-16T01:53:04.923Z,17.40
2018-10-16T01:54:05.153Z,17.33
2018-10-16T01:55:05.237Z,17.39
2018-10-16T01:56:06.734Z,17.42
2018-10-16T01:57:05.131Z,17.43
2018-10-16T01:58:05.132Z,17.42
2018-10-16T01:59:05.132Z,17.49
2018-10-16T02:00:05.158Z,17.46
2018-10-16T02:01:05.130Z,17.42
2018-10-16T02:02:05.134Z,17.40
2018-10-16T02:03:05.137Z,17.45
2018-10-16T02:04:05.147Z,17.40
2018-10-16T02:05:04.977Z,17.39
2018-10-16T02:06:04.979Z,17.42
2018-10-16T02:07:05.026Z,17.42
2018-10-16T02:08:05.024Z,17.39
2018-10-16T02:09:05.042Z,17.36
2018-10-16T02:10:05.062Z,17.43
2018-10-16T02:11:05.060Z,17.40
2018-10-16T02:12:04.937Z,17.35
2018-10-16T02:13:04.976Z,17.38
2018-10-16T02:14:04.961Z,17.38
2018-10-16T02:15:04.963Z,17.43
2018-10-16T02:16:04.918Z,17.30
2018-10-16T02:17:04.960Z,17.36
2018-10-16T02:18:04.971Z,17.32
2018-10-16T02:19:04.952Z,17.30
2018-10-16T02:20:05.158Z,17.28
2018-10-16T02:21:04.627Z,17.33
2018-10-16T02:22:04.978Z,17.33
2018-10-16T02:23:04.964Z,17.36
2018-10-16T02:24:04.622Z,17.36
2018-10-16T02:25:05.003Z,17.32
2018-10-16T02:26:04.953Z,17.33
2018-10-16T02:27:04.963Z,17.36
2018-10-16T02:28:05.211Z,17.24
2018-10-16T02:29:05.171Z,17.22
2018-10-16T02:30:04.643Z,17.22
2018-10-16T02:31:04.644Z,17.35
2018-10-16T02:32:05.198Z,17.27
2018-10-16T02:33:05.156Z,17.27
2018-10-16T02:34:05.148Z,17.25
2018-10-16T02:35:05.152Z,17.28
2018-10-16T02:36:05.162Z,17.30
2018-10-16T02:37:04.832Z,17.27
2018-10-16T02:38:05.195Z,17.32
2018-10-16T02:39:05.192Z,17.33
2018-10-16T02:40:05.188Z,17.38
2018-10-16T02:41:05.184Z,17.47
2018-10-16T02:42:05.147Z,17.40
2018-10-16T02:43:05.153Z,17.45
2018-10-16T02:44:05.186Z,17.42
2018-10-16T02:45:04.939Z,17.40
2018-10-16T02:46:05.186Z,17.43
2018-10-16T02:47:05.152Z,17.36
2018-10-16T02:48:05.172Z,17.51
2018-10-16T02:49:05.152Z,17.47
2018-10-16T02:50:05.154Z,17.54
2018-10-16T02:51:05.215Z,17.57
2018-10-16T02:52:05.178Z,17.45
2018-10-16T02:53:04.984Z,17.40
2018-10-16T02:54:04.971Z,17.45
2018-10-16T02:55:05.178Z,17.35
2018-10-16T02:56:04.976Z,17.35
2018-10-16T02:57:04.955Z,17.39
2018-10-16T02:58:05.172Z,17.22
2018-10-16T02:59:05.026Z,17.32
2018-10-16T03:00:05.000Z,17.30
2018-10-16T03:01:05.152Z,17.28
2018-10-16T03:02:05.174Z,17.33
2018-10-16T03:03:05.157Z,17.36
2018-10-16T03:04:05.176Z,17.36
2018-10-16T03:05:05.510Z,17.40
2018-10-16T03:06:05.160Z,17.33
2018-10-16T03:07:05.160Z,17.27
2018-10-16T03:08:04.969Z,17.24
2018-10-16T03:09:05.021Z,17.12
2018-10-16T03:10:05.592Z,17.15
2018-10-16T03:11:05.168Z,17.20
2018-10-16T03:12:04.941Z,17.18
2018-10-16T03:13:05.159Z,17.20
2018-10-16T03:14:04.946Z,17.28
2018-10-16T03:15:05.661Z,17.17
2018-10-16T03:16:05.159Z,17.21
2018-10-16T03:17:04.932Z,17.28
2018-10-16T03:18:05.162Z,17.20
2018-10-16T03:19:04.955Z,17.20
2018-10-16T03:20:05.699Z,17.21
2018-10-16T03:21:04.942Z,17.28
2018-10-16T03:22:05.162Z,17.20
2018-10-16T03:23:05.159Z,17.21
2018-10-16T03:24:05.155Z,17.22
2018-10-16T03:25:05.160Z,17.22
2018-10-16T03:26:04.977Z,17.22
2018-10-16T03:27:05.166Z,17.20
2018-10-16T03:28:05.168Z,17.27
2018-10-16T03:29:05.157Z,17.32
2018-10-16T03:30:05.167Z,17.15
2018-10-16T03:31:05.164Z,17.30
2018-10-16T03:32:05.166Z,17.20
2018-10-16T03:33:04.960Z,17.21
2018-10-16T03:34:04.965Z,17.17
2018-10-16T03:35:05.161Z,17.21
2018-10-16T03:36:04.699Z,17.20
2018-10-16T03:37:05.203Z,17.21
2018-10-16T03:38:05.204Z,17.18
2018-10-16T03:39:05.209Z,17.20
2018-10-16T03:40:05.210Z,17.21
2018-10-16T03:41:05.202Z,17.32
2018-10-16T03:42:05.168Z,17.28
2018-10-16T03:43:05.204Z,17.36
2018-10-16T03:44:04.947Z,17.35
2018-10-16T03:45:05.209Z,17.27
2018-10-16T03:46:05.168Z,17.27
2018-10-16T03:47:04.953Z,17.28
2018-10-16T03:48:05.162Z,17.35
2018-10-16T03:49:05.178Z,17.35
2018-10-16T03:50:05.216Z,17.45
2018-10-16T03:51:05.205Z,17.38
2018-10-16T03:52:06.685Z,17.36
2018-10-16T03:53:06.675Z,17.28
2018-10-16T03:54:06.667Z,17.28
2018-10-16T03:55:06.510Z,17.38
2018-10-16T03:56:06.667Z,17.33
2018-10-16T03:57:04.702Z,17.42
2018-10-16T03:58:06.680Z,17.40
2018-10-16T03:59:06.457Z,17.32
2018-10-16T04:00:07.172Z,17.35
2018-10-16T04:01:06.724Z,17.18
2018-10-16T04:02:04.636Z,17.25
2018-10-16T04:03:06.514Z,17.24
2018-10-16T04:04:06.669Z,17.20
2018-10-16T04:05:04.635Z,17.21
2018-10-16T04:06:04.703Z,17.18
2018-10-16T04:07:04.671Z,17.27
2018-10-16T04:08:04.505Z,17.25
2018-10-16T04:09:04.678Z,17.27
2018-10-16T04:10:04.674Z,17.12
2018-10-16T04:11:04.777Z,17.03
2018-10-16T04:12:05.191Z,17.09
2018-10-16T04:13:04.547Z,17.03
2018-10-16T04:14:05.287Z,16.99
2018-10-16T04:15:04.680Z,17.18
2018-10-16T04:16:04.722Z,17.12
2018-10-16T04:17:04.673Z,17.12
2018-10-16T04:18:04.675Z,17.14
2018-10-16T04:19:04.510Z,17.14
2018-10-16T04:20:04.679Z,17.15
2018-10-16T04:21:04.304Z,17.18
2018-10-16T04:22:04.834Z,17.22
2018-10-16T04:23:04.851Z,17.24
2018-10-16T04:24:04.740Z,17.27
2018-10-16T04:25:04.739Z,17.24
2018-10-16T04:26:04.806Z,17.20
2018-10-16T04:27:04.845Z,17.22
2018-10-16T04:28:06.710Z,17.12
2018-10-16T04:29:04.834Z,17.21
2018-10-16T04:30:04.865Z,17.06
2018-10-16T04:31:04.788Z,17.10
2018-10-16T04:32:05.224Z,17.10
2018-10-16T04:33:04.939Z,17.07
2018-10-16T04:34:04.687Z,17.00
2018-10-16T04:35:05.232Z,17.10
2018-10-16T04:36:05.061Z,17.10
2018-10-16T04:37:04.888Z,17.00
2018-10-16T04:38:04.683Z,17.10
2018-10-16T04:39:05.062Z,17.09
2018-10-16T04:40:05.310Z,17.05
2018-10-16T04:41:04.683Z,17.03
2018-10-16T04:42:04.696Z,17.06
2018-10-16T04:43:06.735Z,17.12
2018-10-16T04:44:05.137Z,17.14
2018-10-16T04:45:06.368Z,17.14
2018-10-16T04:46:04.378Z,17.10
2018-10-16T04:47:04.675Z,17.10
2018-10-16T04:48:04.845Z,16.99
2018-10-16T04:49:04.983Z,16.99
2018-10-16T04:50:04.734Z,16.99
2018-10-16T04:51:04.817Z,17.02
2018-10-16T04:52:04.854Z,17.05
2018-10-16T04:53:05.226Z,16.90
2018-10-16T04:54:04.611Z,16.88
2018-10-16T04:55:04.744Z,17.00
2018-10-16T04:56:04.690Z,17.07
2018-10-16T04:57:04.725Z,16.99
2018-10-16T04:58:05.225Z,16.87
2018-10-16T04:59:05.160Z,16.87
2018-10-16T05:00:04.830Z,16.87
2018-10-16T05:01:03.135Z,16.87
2018-10-16T05:02:04.419Z,16.88
2018-10-16T05:03:05.240Z,16.84
2018-10-16T05:04:05.164Z,16.82
2018-10-16T05:05:04.264Z,16.92
2018-10-16T05:06:03.137Z,16.85
2018-10-16T05:07:03.857Z,16.92
2018-10-16T05:08:04.748Z,16.95
2018-10-16T05:09:04.694Z,17.03
2018-10-16T05:10:05.238Z,17.12
2018-10-16T05:11:03.154Z,17.07
2018-10-16T05:12:04.257Z,17.05
2018-10-16T05:13:04.230Z,16.88
2018-10-16T05:14:04.233Z,16.84
2018-10-16T05:15:03.771Z,16.95
2018-10-16T05:16:03.156Z,16.88
2018-10-16T05:17:04.796Z,16.84
2018-10-16T05:18:04.739Z,16.88
2018-10-16T05:19:04.568Z,16.92
2018-10-16T05:20:03.802Z,16.98
2018-10-16T05:21:04.264Z,17.03
2018-10-16T05:22:04.750Z,17.00
2018-10-16T05:23:04.712Z,17.03
2018-10-16T05:24:04.244Z,16.80
2018-10-16T05:25:04.250Z,16.80
2018-10-16T05:26:04.447Z,16.72
2018-10-16T05:27:04.194Z,16.87
2018-10-16T05:28:04.315Z,16.91
2018-10-16T05:29:04.542Z,16.80
2018-10-16T05:30:04.213Z,16.75
2018-10-16T05:31:04.863Z,16.91
2018-10-16T05:32:04.157Z,16.84
2018-10-16T05:33:03.808Z,17.00
2018-10-16T05:34:04.915Z,17.03
2018-10-16T05:35:04.402Z,17.05
2018-10-16T05:36:04.199Z,16.99
2018-10-16T05:37:03.099Z,17.02
2018-10-16T05:38:04.197Z,17.05
2018-10-16T05:39:04.590Z,17.05
2018-10-16T05:40:04.245Z,17.02
2018-10-16T05:41:03.103Z,16.91
2018-10-16T05:42:17.930Z,16.87
2018-10-16T05:43:11.044Z,16.91
2018-10-16T05:44:04.759Z,16.88
2018-10-16T05:47:37.191Z,16.87
2018-10-16T05:49:44.249Z,17.03
2018-10-16T05:50:44.351Z,17.02
2018-10-16T05:52:37.859Z,16.90
2018-10-16T05:53:37.731Z,16.84
2018-10-16T05:55:32.408Z,16.95
2018-10-16T05:56:32.448Z,16.81
2018-10-16T05:58:26.670Z,16.88
2018-10-16T05:59:35.589Z,16.85
2018-10-16T06:01:21.575Z,16.90
2018-10-16T06:02:21.306Z,16.98
2018-10-16T06:04:16.830Z,16.77
2018-10-16T06:05:17.645Z,16.73
2018-10-16T06:07:11.502Z,16.75
2018-10-16T06:08:13.565Z,16.77
2018-10-16T06:10:06.672Z,16.78
2018-10-16T06:11:07.405Z,16.78
2018-10-16T06:13:01.547Z,16.73
2018-10-16T06:14:01.516Z,16.67
2018-10-16T06:15:56.480Z,16.67
2018-10-16T06:17:55.069Z,16.65
2018-10-16T06:18:58.316Z,16.62
2018-10-16T06:19:56.694Z,16.57
2018-10-16T06:20:55.170Z,16.59
2018-10-16T06:21:56.966Z,16.65
2018-10-16T06:22:56.592Z,16.59
2018-10-16T06:23:56.692Z,16.57
2018-10-16T06:24:56.525Z,16.66
2018-10-16T06:25:56.357Z,16.54
2018-10-16T06:26:56.141Z,16.54
2018-10-16T06:27:56.737Z,16.48
2018-10-16T06:28:55.045Z,16.59
2018-10-16T06:29:56.173Z,16.59
2018-10-16T06:30:56.989Z,16.59
2018-10-16T06:31:57.105Z,16.44
2018-10-16T06:32:56.241Z,16.37
2018-10-16T06:33:55.048Z,16.42
2018-10-16T06:34:55.646Z,16.47
2018-10-16T06:35:57.194Z,16.45
2018-10-16T06:36:56.495Z,16.45
2018-10-16T06:37:56.676Z,16.36
2018-10-16T06:38:55.643Z,16.36
2018-10-16T06:39:56.405Z,16.37
2018-10-16T06:40:56.470Z,16.40
2018-10-16T06:41:56.457Z,16.36
2018-10-16T06:42:55.609Z,16.50
2018-10-16T06:43:58.686Z,16.48
2018-10-16T06:44:56.255Z,16.47
2018-10-16T06:45:56.517Z,16.45
2018-10-16T06:46:55.979Z,16.62
2018-10-16T06:47:56.777Z,16.44
2018-10-16T06:48:56.252Z,16.47
2018-10-16T06:49:56.556Z,16.52
2018-10-16T06:50:56.472Z,16.48
2018-10-16T06:51:56.742Z,16.34
2018-10-16T06:52:56.746Z,16.42
2018-10-16T06:53:56.494Z,16.44
2018-10-16T06:54:56.665Z,16.40
2018-10-16T06:55:56.696Z,16.44
2018-10-16T06:56:56.743Z,16.33
2018-10-16T06:58:17.205Z,16.44
2018-10-16T06:58:58.484Z,16.57
2018-10-16T06:59:57.088Z,16.54
2018-10-16T07:00:56.007Z,16.65
2018-10-16T07:01:56.148Z,16.52
2018-10-16T07:02:56.728Z,16.55
2018-10-16T07:03:56.518Z,16.50
2018-10-16T07:04:56.147Z,16.41
2018-10-16T07:05:56.491Z,16.41
2018-10-16T07:06:57.136Z,16.37
2018-10-16T07:07:56.148Z,16.36
2018-10-16T07:08:56.146Z,16.36
2018-10-16T07:09:56.725Z,16.33
2018-10-16T07:10:56.511Z,16.27
2018-10-16T07:11:56.646Z,16.34
2018-10-16T07:12:54.836Z,16.32
2018-10-16T07:13:55.959Z,16.44
2018-10-16T07:14:56.820Z,16.45
2018-10-16T07:15:56.759Z,16.44
2018-10-16T07:16:56.865Z,16.33
2018-10-16T07:17:55.973Z,16.45
2018-10-16T07:18:56.676Z,16.42
2018-10-16T07:19:56.785Z,16.42
2018-10-16T07:20:56.607Z,16.47
2018-10-16T07:21:56.740Z,16.40
2018-10-16T07:22:56.464Z,16.33
2018-10-16T07:23:56.506Z,16.32
2018-10-16T07:24:56.655Z,16.36
2018-10-16T07:25:55.933Z,16.26
2018-10-16T07:26:58.707Z,16.23
2018-10-16T07:27:57.105Z,16.32
2018-10-16T07:28:56.189Z,16.33
2018-10-16T07:29:57.228Z,16.27
2018-10-16T07:30:57.095Z,16.33
2018-10-16T07:31:56.254Z,16.30
2018-10-16T07:32:56.796Z,16.34
2018-10-16T07:33:56.709Z,16.41
2018-10-16T07:34:56.192Z,16.33
2018-10-16T07:35:56.716Z,16.34
2018-10-16T07:36:56.672Z,16.37
2018-10-16T07:37:56.356Z,16.45
2018-10-16T07:38:56.799Z,16.40
2018-10-16T07:39:56.654Z,16.34
2018-10-16T07:40:56.165Z,16.36
2018-10-16T07:41:56.753Z,16.36
2018-10-16T07:42:56.766Z,16.42
2018-10-16T07:43:56.173Z,16.42
2018-10-16T07:44:56.741Z,16.48
2018-10-16T07:45:58.341Z,16.48
2018-10-16T07:46:56.210Z,16.34
2018-10-16T07:47:58.158Z,16.36
2018-10-16T07:48:58.606Z,16.36
2018-10-16T07:49:56.158Z,16.30
2018-10-16T07:50:56.620Z,16.47
2018-10-16T07:51:58.564Z,16.51
2018-10-16T07:52:56.220Z,16.52
2018-10-16T07:53:56.992Z,16.55
2018-10-16T07:54:58.660Z,16.57
2018-10-16T07:56:02.060Z,16.59
2018-10-16T07:56:56.777Z,16.57
2018-10-16T07:57:56.823Z,16.57
2018-10-16T07:58:56.103Z,16.60
2018-10-16T07:59:55.881Z,16.69
2018-10-16T08:00:56.697Z,16.72
2018-10-16T08:01:56.175Z,16.75
2018-10-16T08:02:56.641Z,16.75
2018-10-16T08:03:56.727Z,16.80
2018-10-16T08:04:56.164Z,16.87
2018-10-16T08:05:56.164Z,16.91
2018-10-16T08:06:56.626Z,16.92
2018-10-16T08:07:56.268Z,17.00
2018-10-16T08:08:56.632Z,16.99
2018-10-16T08:09:58.545Z,16.96
2018-10-16T08:10:56.252Z,17.05
2018-10-16T08:11:56.675Z,17.03
2018-10-16T08:12:56.238Z,17.02
2018-10-16T08:13:56.225Z,17.02
2018-10-16T08:14:58.560Z,17.10
2018-10-16T08:15:56.167Z,17.22
2018-10-16T08:16:56.239Z,17.27
2018-10-16T08:17:56.247Z,17.30
2018-10-16T08:18:58.321Z,17.22
2018-10-16T08:19:56.209Z,17.30
2018-10-16T08:20:56.169Z,17.35
2018-10-16T08:21:56.527Z,17.32
2018-10-16T08:22:56.283Z,17.38
2018-10-16T08:23:56.246Z,17.35
2018-10-16T08:24:56.188Z,17.39
2018-10-16T08:25:56.174Z,17.49
2018-10-16T08:26:56.344Z,17.47
2018-10-16T08:27:56.207Z,17.51
2018-10-16T08:28:56.125Z,17.49
2018-10-16T08:29:56.711Z,17.53
2018-10-16T08:30:56.699Z,17.65
2018-10-16T08:31:58.277Z,17.60
2018-10-16T08:32:56.642Z,17.68
2018-10-16T08:33:56.731Z,17.74
2018-10-16T08:34:56.364Z,17.73
2018-10-16T08:35:56.696Z,17.79
2018-10-16T08:36:56.841Z,17.77
2018-10-16T08:37:56.280Z,17.84
2018-10-16T08:38:56.667Z,17.84
2018-10-16T08:39:56.522Z,17.91
2018-10-16T08:40:56.676Z,17.91
2018-10-16T08:41:54.729Z,17.99
2018-10-16T08:42:57.859Z,17.98
2018-10-16T08:43:56.418Z,18.02
2018-10-16T08:44:56.480Z,18.02
2018-10-16T08:45:56.250Z,18.14
2018-10-16T08:46:57.713Z,18.16
2018-10-16T08:47:56.172Z,18.05
2018-10-16T08:48:56.671Z,18.17
2018-10-16T08:49:56.173Z,18.19
2018-10-16T08:50:56.172Z,18.31
2018-10-16T08:51:56.686Z,18.26
2018-10-16T08:52:56.229Z,18.35
2018-10-16T08:53:58.746Z,18.31
2018-10-16T08:54:56.259Z,18.41
2018-10-16T08:55:56.177Z,18.44
2018-10-16T08:56:56.261Z,18.42
2018-10-16T08:57:56.709Z,18.53
2018-10-16T08:58:57.745Z,18.53
2018-10-16T08:59:56.248Z,18.54
2018-10-16T09:00:56.271Z,18.50
2018-10-16T09:01:56.178Z,18.62
2018-10-16T09:02:56.540Z,18.59
2018-10-16T09:03:56.124Z,18.60
2018-10-16T09:04:57.771Z,18.68
2018-10-16T09:05:56.249Z,18.72
2018-10-16T09:06:56.229Z,18.79
2018-10-16T09:07:56.562Z,18.79
2018-10-16T09:08:56.253Z,18.89
2018-10-16T09:09:56.238Z,18.90
2018-10-16T09:10:56.247Z,18.90
2018-10-16T09:11:55.689Z,18.96
2018-10-16T09:12:56.252Z,18.87
2018-10-16T09:13:56.749Z,19.07
2018-10-16T09:14:56.630Z,19.06
2018-10-16T09:15:55.756Z,19.15
2018-10-16T09:16:56.742Z,19.15
2018-10-16T09:17:56.525Z,19.16
2018-10-16T09:18:56.647Z,19.20
2018-10-16T09:19:56.185Z,19.23
2018-10-16T09:20:56.014Z,19.32
2018-10-16T09:21:55.789Z,19.40
2018-10-16T09:22:56.186Z,19.40
2018-10-16T09:23:56.740Z,19.46
2018-10-16T09:24:56.632Z,19.47
2018-10-16T09:25:56.863Z,19.53
2018-10-16T09:26:56.189Z,19.55
2018-10-16T09:27:56.187Z,19.60
2018-10-16T09:28:56.446Z,19.75
2018-10-16T09:29:56.195Z,19.78
2018-10-16T09:30:56.327Z,19.83
2018-10-16T09:31:56.189Z,19.89
2018-10-16T09:32:56.693Z,19.87
2018-10-16T09:33:56.379Z,20.01
2018-10-16T09:34:56.311Z,20.02
2018-10-16T09:35:56.257Z,20.16
2018-10-16T09:36:56.645Z,20.15
2018-10-16T09:37:56.117Z,20.23
2018-10-16T09:38:58.082Z,20.15
2018-10-16T09:39:56.342Z,20.34
2018-10-16T09:40:56.202Z,20.34
2018-10-16T09:41:56.595Z,20.42
2018-10-16T09:42:55.953Z,20.33
2018-10-16T09:43:56.245Z,20.53
2018-10-16T09:44:56.301Z,20.51
2018-10-16T09:45:56.197Z,20.61
2018-10-16T09:46:56.294Z,20.58
2018-10-16T09:47:56.546Z,20.68
2018-10-16T09:48:56.208Z,20.75
2018-10-16T09:49:56.318Z,20.87
2018-10-16T09:50:56.319Z,20.96
2018-10-16T09:51:58.130Z,20.87
2018-10-16T09:52:56.775Z,21.05
2018-10-16T09:53:55.811Z,21.11
2018-10-16T09:56:28.866Z,21.27
2018-10-16T09:57:29.549Z,21.22
2018-10-16T10:00:38.330Z,21.36
2018-10-16T10:02:32.083Z,21.52
2018-10-16T10:03:31.895Z,21.55
2018-10-16T10:05:26.084Z,21.67
2018-10-16T10:06:26.714Z,21.73
2018-10-16T10:08:48.733Z,21.90
2018-10-16T10:09:49.042Z,22.06
2018-10-16T10:10:48.724Z,22.20
2018-10-16T10:11:48.716Z,22.15
2018-10-16T10:12:49.237Z,22.21
2018-10-16T10:13:48.995Z,22.42
2018-10-16T10:14:49.105Z,22.52
2018-10-16T10:15:50.746Z,22.66
2018-10-16T10:16:48.661Z,22.78
2018-10-16T10:17:50.376Z,23.06
2018-10-16T10:18:48.902Z,23.16
2018-10-16T10:19:49.031Z,23.35
2018-10-16T10:20:49.327Z,23.53
2018-10-16T10:21:49.363Z,23.60
2018-10-16T10:22:48.664Z,24.11
2018-10-16T10:24:15.669Z,24.44
2018-10-16T10:24:49.715Z,24.63
2018-10-16T10:26:01.252Z,24.80
2018-10-16T10:27:43.663Z,25.48
2018-10-16T10:28:44.031Z,25.54
2018-10-16T10:30:37.786Z,26.54
2018-10-16T10:31:38.332Z,26.73
2018-10-16T10:32:37.892Z,26.96
2018-10-16T10:33:38.676Z,27.35
2018-10-16T10:34:38.386Z,27.76
2018-10-16T10:35:38.811Z,27.91
2018-10-16T10:36:37.785Z,28.30
2018-10-16T10:37:38.165Z,29.05
2018-10-16T10:38:38.289Z,29.20
2018-10-16T10:39:38.643Z,29.62
2018-10-16T10:40:37.870Z,29.79
2018-10-16T10:41:38.690Z,30.01
2018-10-16T10:42:38.797Z,30.22
2018-10-16T10:43:38.445Z,30.67
2018-10-16T10:44:38.389Z,30.54
2018-10-16T10:47:13.619Z,31.20
2018-10-16T10:48:14.041Z,31.59
2018-10-16T10:50:08.801Z,32.02
2018-10-16T10:51:09.126Z,32.14
2018-10-16T10:53:03.114Z,32.31
2018-10-16T10:54:02.959Z,32.46
2018-10-16T10:55:03.190Z,33.22
2018-10-16T10:56:03.114Z,33.21
2018-10-16T10:57:03.283Z,33.89
2018-10-16T10:58:02.596Z,34.31
2018-10-16T10:59:02.601Z,34.80
2018-10-16T11:00:02.530Z,35.18
2018-10-16T11:01:02.558Z,35.03
2018-10-16T11:02:02.933Z,35.27
2018-10-16T11:03:02.674Z,35.55
2018-10-16T11:04:02.600Z,35.73
2018-10-16T11:05:03.568Z,36.25
2018-10-16T11:06:03.415Z,36.38
2018-10-16T11:07:03.685Z,36.48
2018-10-16T11:08:02.581Z,37.11
2018-10-16T11:09:03.149Z,37.40
2018-10-16T11:10:05.416Z,36.57
2018-10-16T11:11:23.564Z,36.68
2018-10-16T11:12:03.620Z,36.11
2018-10-16T11:13:04.655Z,36.00
2018-10-16T11:14:17.370Z,36.57
2018-10-16T11:15:02.888Z,36.82
2018-10-16T11:16:03.903Z,37.20
2018-10-16T11:17:03.068Z,37.27
2018-10-16T11:18:02.570Z,37.60
2018-10-16T11:22:43.055Z,37.20
2018-10-16T11:22:57.628Z,37.13
2018-10-16T11:24:51.879Z,38.09
2018-10-16T11:27:43.230Z,38.18
2018-10-16T11:32:03.448Z,37.81
2018-10-16T11:34:08.729Z,38.34
2018-10-16T11:35:08.883Z,38.26
2018-10-16T11:37:21.207Z,38.72
2018-10-16T11:38:03.580Z,38.43
2018-10-16T11:43:16.259Z,38.78
2018-10-16T11:44:16.305Z,38.02
2018-10-16T11:46:10.779Z,39.22
2018-10-16T11:47:13.809Z,38.71
2018-10-16T11:49:05.603Z,38.72
2018-10-16T11:50:08.116Z,38.97
2018-10-16T11:51:59.327Z,38.70
2018-10-16T11:52:59.953Z,38.86
2018-10-16T11:54:54.103Z,38.49
2018-10-16T11:55:55.736Z,38.72
2018-10-16T11:58:00.158Z,39.16
2018-10-16T11:58:59.783Z,39.17
2018-10-16T12:00:54.476Z,39.05
2018-10-16T12:01:54.613Z,38.75
2018-10-16T12:03:48.680Z,38.93
2018-10-16T12:04:49.137Z,39.17
2018-10-16T12:06:43.935Z,39.51
2018-10-16T12:07:44.037Z,39.46
2018-10-16T12:09:38.687Z,39.06
2018-10-16T12:10:38.852Z,39.09
2018-10-16T12:12:33.639Z,39.17
2018-10-16T12:13:33.074Z,39.32
2018-10-16T12:15:26.988Z,38.34
2018-10-16T12:16:27.962Z,38.79
2018-10-16T12:17:47.975Z,38.74
2018-10-16T12:18:42.419Z,39.34
2018-10-16T12:19:28.100Z,39.54
2018-10-16T12:20:48.516Z,39.12
2018-10-16T12:21:28.402Z,37.63
2018-10-16T12:22:27.416Z,37.69
2018-10-16T12:23:27.855Z,38.24
2018-10-16T12:24:27.420Z,38.38
2018-10-16T12:25:27.410Z,38.45
2018-10-16T12:26:27.327Z,38.55
2018-10-16T12:27:27.435Z,38.77
2018-10-16T12:28:47.997Z,38.77
2018-10-16T12:29:27.408Z,38.67
2018-10-16T12:30:27.403Z,38.47
2018-10-16T12:31:29.407Z,38.82
2018-10-16T12:32:27.407Z,38.72
2018-10-16T12:33:27.114Z,39.02
2018-10-16T12:34:28.249Z,39.06
2018-10-16T12:35:27.434Z,39.25
2018-10-16T12:36:27.934Z,38.89
2018-10-16T12:37:27.976Z,38.92
2018-10-16T12:38:27.523Z,38.89
2018-10-16T12:39:27.786Z,38.56
2018-10-16T12:40:28.198Z,38.41
2018-10-16T12:41:27.921Z,38.60
2018-10-16T12:42:27.885Z,38.72
2018-10-16T12:43:28.543Z,38.67
2018-10-16T12:44:27.240Z,39.05
2018-10-16T12:45:27.419Z,38.90
2018-10-16T12:46:27.915Z,39.38
2018-10-16T12:47:27.751Z,39.92
2018-10-16T12:48:27.882Z,39.31
2018-10-16T12:49:27.917Z,38.87
2018-10-16T12:50:27.971Z,39.13
2018-10-16T12:51:27.981Z,39.00
2018-10-16T12:52:27.925Z,38.63
2018-10-16T12:53:27.991Z,39.20
2018-10-16T12:54:27.886Z,39.20
2018-10-16T12:55:27.926Z,39.22
2018-10-16T12:56:27.935Z,39.06
2018-10-16T12:57:28.495Z,39.05
2018-10-16T12:58:27.988Z,38.97
2018-10-16T12:59:29.896Z,38.87
2018-10-16T13:00:27.965Z,38.74
2018-10-16T13:01:30.221Z,38.95
2018-10-16T13:02:27.985Z,38.95
2018-10-16T13:03:28.017Z,38.52
2018-10-16T13:04:30.159Z,38.53
2018-10-16T13:05:27.815Z,38.82
2018-10-16T13:06:29.009Z,38.44
2018-10-16T13:07:28.959Z,38.04
2018-10-16T13:08:27.926Z,38.26
2018-10-16T13:09:27.929Z,38.26
2018-10-16T13:12:23.865Z,38.34
2018-10-16T13:13:22.973Z,37.90
2018-10-16T13:15:46.238Z,38.09
2018-10-16T13:16:46.260Z,37.54
2018-10-16T13:18:41.850Z,37.90
2018-10-16T13:19:41.277Z,38.04
2018-10-16T13:21:36.445Z,37.53
2018-10-16T13:22:36.396Z,37.23
2018-10-16T13:24:30.303Z,37.62
2018-10-16T13:25:30.491Z,37.49
2018-10-16T13:27:24.833Z,37.24
2018-10-16T13:28:25.831Z,37.63
2018-10-16T13:29:25.406Z,37.53
2018-10-16T13:30:24.855Z,37.25
2018-10-16T13:31:25.452Z,37.24
2018-10-16T13:34:17.282Z,37.18
2018-10-16T13:35:17.368Z,37.39
2018-10-16T13:38:38.039Z,37.21
2018-10-16T13:39:38.901Z,37.24
2018-10-16T13:41:48.353Z,37.13
2018-10-16T13:42:32.238Z,36.90
2018-10-16T13:45:17.995Z,36.69
2018-10-16T13:46:21.869Z,36.78
2018-10-16T13:50:45.576Z,35.73
2018-10-16T13:54:58.872Z,34.26
2018-10-16T13:55:37.819Z,33.70
2018-10-16T13:59:57.996Z,32.12
2018-10-16T14:04:14.090Z,31.27
2018-10-16T14:05:14.839Z,31.16
2018-10-16T14:07:10.673Z,30.76
2018-10-16T14:08:14.145Z,30.53
2018-10-16T14:09:14.477Z,30.42
2018-10-16T14:10:31.626Z,30.15